createdAt,value
2022-10-19T00:00:24.382Z,58.81
2022-10-19T00:02:51.555Z,59.92
2022-10-19T00:05:19.423Z,59.85
2022-10-19T00:07:48.362Z,58.46
2022-10-19T00:10:15.297Z,59.41
2022-10-19T00:12:42.126Z,60.07
2022-10-19T00:15:09.762Z,60.34
2022-10-19T00:17:36.715Z,59.13
2022-10-19T00:20:03.679Z,57.91
2022-10-19T00:22:30.881Z,56.57
2022-10-19T00:24:59.793Z,55.55
2022-10-19T00:27:29.908Z,55.44
2022-10-19T00:29:58.414Z,55.13
2022-10-19T00:32:28.138Z,55.27
2022-10-19T00:34:55.169Z,56.50
2022-10-19T00:37:22.430Z,55.46
2022-10-19T00:42:23.227Z,54.71
2022-10-19T00:44:50.262Z,54.74
2022-10-19T00:47:19.387Z,56.75
2022-10-19T00:49:48.412Z,58.85
2022-10-19T00:52:15.409Z,57.66
2022-10-19T00:54:42.491Z,57.07
2022-10-19T00:57:09.628Z,56.76
2022-10-19T00:59:37.388Z,55.51
2022-10-19T01:02:04.752Z,55.00
2022-10-19T01:04:32.004Z,54.81
2022-10-19T01:06:58.978Z,54.76
2022-10-19T01:09:26.064Z,55.83
2022-10-19T01:11:53.722Z,55.78
2022-10-19T01:14:21.638Z,55.17
2022-10-19T01:16:48.498Z,56.25
2022-10-19T01:19:16.347Z,56.99
2022-10-19T01:21:43.439Z,58.32
2022-10-19T01:24:10.607Z,59.30
2022-10-19T01:26:37.997Z,58.34
2022-10-19T01:29:05.059Z,58.85
2022-10-19T01:31:32.078Z,59.01
2022-10-19T01:34:00.266Z,59.32
2022-10-19T01:36:27.337Z,58.43
2022-10-19T01:38:57.520Z,58.40
2022-10-19T01:41:24.500Z,57.64
2022-10-19T01:43:51.498Z,57.89
2022-10-19T01:46:18.370Z,56.68
2022-10-19T01:48:49.907Z,56.80
2022-10-19T01:51:17.365Z,58.32
2022-10-19T01:53:44.129Z,56.86
2022-10-19T01:56:11.765Z,56.95
2022-10-19T01:58:38.917Z,56.92
2022-10-19T02:01:05.706Z,56.39
2022-10-19T02:03:33.289Z,56.48
2022-10-19T02:06:02.087Z,58.16
2022-10-19T02:08:32.569Z,57.04
2022-10-19T02:10:59.612Z,56.14
2022-10-19T02:13:28.335Z,55.50
2022-10-19T02:15:54.997Z,53.94
2022-10-19T02:18:21.735Z,54.78
2022-10-19T02:20:52.250Z,57.56
2022-10-19T02:23:19.242Z,58.85
2022-10-19T02:25:46.650Z,57.86
2022-10-19T02:28:13.384Z,57.40
2022-10-19T02:30:40.035Z,57.26
2022-10-19T02:33:12.324Z,56.29
2022-10-19T02:35:39.354Z,56.61
2022-10-19T02:38:06.960Z,57.22
2022-10-19T02:40:38.019Z,56.63
2022-10-19T02:43:04.979Z,56.25
2022-10-19T02:45:32.040Z,56.61
2022-10-19T02:47:58.992Z,57.73
2022-10-19T02:50:25.931Z,58.66
2022-10-19T02:52:53.076Z,57.65
2022-10-19T02:55:20.905Z,57.64
2022-10-19T02:57:50.966Z,56.54
2022-10-19T03:00:18.002Z,57.07
2022-10-19T03:02:44.944Z,58.44
2022-10-19T03:05:15.399Z,57.16
2022-10-19T03:07:45.919Z,56.02
2022-10-19T03:10:12.760Z,56.70
2022-10-19T03:12:41.877Z,57.37
2022-10-19T03:15:09.008Z,57.07
2022-10-19T03:17:37.815Z,55.76
2022-10-19T03:20:04.729Z,55.58
2022-10-19T03:22:36.416Z,55.73
2022-10-19T03:25:03.763Z,55.05
2022-10-19T03:27:30.886Z,54.06
2022-10-19T03:29:58.701Z,54.93
2022-10-19T03:32:25.583Z,55.53
2022-10-19T03:34:53.192Z,56.28
2022-10-19T03:37:19.993Z,55.92
2022-10-19T03:39:53.698Z,55.34
2022-10-19T03:42:23.751Z,55.58
2022-10-19T03:44:54.223Z,54.54
2022-10-19T03:47:21.215Z,54.15
2022-10-19T03:49:48.750Z,55.11
2022-10-19T03:52:16.590Z,54.58
2022-10-19T03:54:45.168Z,54.47
2022-10-19T03:57:13.744Z,55.58
2022-10-19T03:59:42.567Z,55.42
2022-10-19T04:02:12.799Z,57.90
2022-10-19T04:04:39.872Z,59.54
2022-10-19T04:07:07.433Z,60.49
2022-10-19T04:09:34.538Z,58.39
2022-10-19T04:12:03.140Z,58.61
2022-10-19T04:14:57.365Z,58.97
2022-10-19T04:17:25.797Z,58.83
2022-10-19T04:19:56.070Z,60.45
2022-10-19T04:22:22.947Z,60.55
2022-10-19T04:24:52.504Z,60.28
2022-10-19T04:27:20.322Z,59.92
2022-10-19T04:29:47.877Z,60.17
2022-10-19T04:32:18.253Z,59.07
2022-10-19T04:34:45.844Z,58.24
2022-10-19T04:37:24.250Z,57.89
2022-10-19T04:40:15.390Z,58.24
2022-10-19T04:42:51.757Z,57.44
2022-10-19T04:45:18.521Z,57.38
2022-10-19T04:47:48.857Z,58.05
2022-10-19T04:50:22.659Z,57.57
2022-10-19T04:52:51.972Z,56.83
2022-10-19T04:55:19.453Z,55.07
2022-10-19T04:57:46.740Z,54.15
2022-10-19T05:00:14.106Z,54.06
2022-10-19T05:02:49.543Z,54.71
2022-10-19T05:05:17.372Z,55.60
2022-10-19T05:07:46.216Z,54.57
2022-10-19T05:10:13.096Z,53.28
2022-10-19T05:12:41.788Z,53.00
2022-10-19T05:15:11.087Z,53.82
2022-10-19T05:17:38.256Z,54.69
2022-10-19T05:20:06.856Z,56.21
2022-10-19T05:22:33.906Z,55.26
2022-10-19T05:25:01.305Z,54.24
2022-10-19T05:27:28.205Z,57.04
2022-10-19T05:32:50.802Z,55.68
2022-10-19T05:38:03.536Z,54.23
2022-10-19T05:40:32.811Z,53.70
2022-10-19T05:42:59.877Z,53.93
2022-10-19T05:45:27.484Z,54.91
2022-10-19T05:48:01.629Z,56.77
2022-10-19T05:53:41.699Z,57.18
2022-10-19T05:56:12.431Z,58.57
2022-10-19T05:58:43.062Z,57.16
2022-10-19T06:01:10.990Z,57.81
2022-10-19T06:03:38.548Z,57.27
2022-10-19T06:06:14.810Z,57.02
2022-10-19T06:08:42.973Z,57.30
2022-10-19T06:14:05.467Z,59.21
2022-10-19T06:16:38.127Z,60.07
2022-10-19T06:19:09.855Z,58.57
2022-10-19T06:24:26.741Z,59.20
2022-10-19T06:26:59.142Z,58.68
2022-10-19T06:29:48.895Z,57.29
2022-10-19T06:32:18.673Z,58.63
2022-10-19T06:34:45.638Z,59.16
2022-10-19T06:37:19.271Z,58.90
2022-10-19T06:42:47.675Z,58.84
2022-10-19T07:00:39.398Z,57.04
2022-10-19T07:03:18.338Z,58.46
2022-10-19T07:06:07.122Z,57.04
2022-10-19T07:08:50.892Z,56.91
2022-10-19T07:14:57.168Z,56.65
2022-10-19T07:20:29.727Z,55.09
2022-10-19T07:23:25.868Z,57.52
2022-10-19T07:25:52.946Z,58.54
2022-10-19T07:28:22.963Z,56.69
2022-10-19T07:30:50.736Z,55.82
2022-10-19T07:33:20.462Z,56.32
2022-10-19T07:38:32.074Z,55.82
2022-10-19T07:43:48.547Z,55.40
2022-10-19T07:56:23.093Z,56.94
2022-10-19T08:07:26.143Z,54.59
2022-10-19T08:10:21.912Z,55.58
2022-10-19T08:12:54.695Z,55.62
2022-10-19T08:18:18.889Z,53.54
2022-10-19T08:20:59.714Z,53.29
2022-10-19T08:27:03.856Z,53.86
2022-10-19T08:29:46.189Z,52.48
2022-10-19T08:32:15.950Z,52.71
2022-10-19T08:35:10.665Z,54.32
2022-10-19T08:40:35.864Z,55.36
2022-10-19T08:43:22.045Z,57.08
2022-10-19T08:45:57.345Z,55.17
2022-10-19T08:48:32.249Z,55.82
2022-10-19T08:51:10.470Z,57.05
2022-10-19T08:53:43.292Z,55.61
2022-10-19T08:56:45.796Z,54.25
2022-10-19T08:59:11.522Z,53.56
2022-10-19T09:02:05.084Z,53.48
2022-10-19T09:05:02.843Z,54.17
2022-10-19T09:08:04.760Z,55.33
2022-10-19T09:10:32.137Z,53.87
2022-10-19T09:13:01.038Z,54.49
2022-10-19T09:15:30.818Z,56.74
2022-10-19T09:18:10.080Z,56.64
2022-10-19T09:20:38.817Z,55.11
2022-10-19T09:23:20.249Z,55.91
2022-10-19T09:28:51.626Z,53.49
2022-10-19T09:31:30.397Z,54.01
2022-10-19T09:34:07.193Z,52.63
2022-10-19T09:42:23.631Z,53.89
2022-10-19T09:44:59.737Z,52.81
2022-10-19T09:47:32.765Z,53.81
2022-10-19T09:52:55.870Z,52.17
2022-10-19T09:58:27.997Z,51.48
2022-10-19T10:04:00.581Z,51.98
2022-10-19T10:06:53.884Z,51.76
2022-10-19T10:15:06.327Z,50.23
2022-10-19T10:17:46.926Z,53.19
2022-10-19T10:20:25.983Z,52.54
2022-10-19T10:23:02.987Z,52.37
2022-10-19T10:25:47.321Z,52.11
2022-10-19T10:28:32.868Z,50.74
2022-10-19T10:39:40.773Z,52.16
2022-10-19T10:42:13.616Z,51.30
2022-10-19T10:44:57.995Z,52.08
2022-10-19T10:47:31.300Z,51.54
2022-10-19T10:50:04.894Z,51.34
2022-10-19T10:52:33.131Z,50.91
2022-10-19T10:55:18.676Z,50.14
2022-10-19T11:13:31.872Z,51.81
2022-10-19T11:16:11.218Z,51.94
2022-10-19T11:18:42.372Z,51.45
2022-10-19T11:23:58.760Z,50.90
2022-10-19T11:29:34.550Z,50.13
2022-10-19T11:32:14.196Z,50.08
2022-10-19T11:38:06.658Z,46.74
2022-10-19T11:55:11.036Z,47.77
2022-10-19T12:01:07.900Z,45.23
2022-10-19T12:03:35.636Z,45.68
2022-10-19T12:06:14.929Z,43.69
2022-10-19T12:09:19.058Z,44.04
2022-10-19T12:11:51.413Z,44.51
2022-10-19T12:14:39.071Z,45.21
2022-10-19T12:17:10.412Z,43.54
2022-10-19T12:19:40.380Z,45.69
2022-10-19T12:22:09.771Z,44.88
2022-10-19T12:24:37.034Z,43.26
2022-10-19T12:27:14.135Z,43.50
2022-10-19T12:29:48.469Z,43.72
2022-10-19T12:32:18.055Z,43.23
2022-10-19T12:34:45.179Z,43.84
2022-10-19T12:37:21.519Z,44.24
2022-10-19T12:39:48.763Z,43.05
2022-10-19T12:42:24.325Z,43.62
2022-10-19T12:44:58.661Z,43.50
2022-10-19T12:47:29.856Z,44.03
2022-10-19T12:50:00.114Z,42.54
2022-10-19T12:52:30.362Z,44.97
2022-10-19T12:55:00.190Z,45.02
2022-10-19T12:57:27.790Z,44.94
2022-10-19T12:59:59.834Z,44.94
2022-10-19T13:05:26.512Z,46.18
2022-10-19T13:08:12.331Z,47.25
2022-10-19T13:10:45.478Z,46.69
2022-10-19T13:13:12.812Z,46.73
2022-10-19T13:18:28.715Z,47.62
2022-10-19T13:20:55.790Z,47.98
2022-10-19T13:23:26.471Z,48.66
2022-10-19T13:25:57.344Z,50.32
2022-10-19T13:28:26.216Z,50.64
2022-10-19T13:30:58.375Z,49.61
2022-10-19T13:33:37.103Z,48.73
2022-10-19T13:36:06.397Z,48.63
2022-10-19T13:38:47.928Z,51.36
2022-10-19T13:41:17.743Z,49.51
2022-10-19T13:43:50.636Z,49.59
2022-10-19T13:46:22.752Z,50.63
2022-10-19T13:57:28.504Z,49.51
2022-10-19T14:00:05.895Z,50.71
2022-10-19T14:02:38.649Z,49.24
2022-10-19T14:05:10.577Z,49.41
2022-10-19T14:10:33.117Z,49.04
2022-10-19T14:13:21.175Z,48.65
2022-10-19T14:18:53.104Z,48.14
2022-10-19T14:27:05.682Z,47.72
2022-10-19T14:33:00.988Z,47.05
2022-10-19T14:35:53.505Z,49.32
2022-10-19T14:38:23.390Z,51.73
2022-10-19T14:41:00.253Z,51.36
2022-10-19T14:46:33.823Z,52.88
2022-10-19T14:49:09.407Z,53.95
2022-10-19T15:02:42.416Z,52.93
2022-10-19T15:07:50.828Z,54.15
2022-10-19T15:10:26.319Z,54.12
2022-10-19T15:13:01.722Z,53.74
2022-10-19T15:15:37.076Z,54.42
2022-10-19T15:18:04.349Z,55.94
2022-10-19T15:20:44.162Z,56.34
2022-10-19T15:23:26.964Z,57.20
2022-10-19T15:26:09.671Z,56.96
2022-10-19T15:28:43.433Z,57.87
2022-10-19T15:31:10.518Z,59.95
2022-10-19T15:33:39.378Z,59.25
2022-10-19T15:36:09.247Z,58.67
2022-10-19T15:38:38.518Z,58.68
2022-10-19T15:41:08.091Z,59.80
2022-10-19T15:43:49.871Z,59.23
2022-10-19T15:46:19.478Z,61.08
2022-10-19T15:48:58.435Z,60.61
2022-10-19T15:51:33.671Z,61.98
2022-10-19T15:54:18.514Z,62.49
2022-10-19T15:56:49.541Z,62.80
2022-10-19T15:59:16.349Z,63.09
2022-10-19T16:01:44.164Z,61.21
2022-10-19T16:04:14.567Z,60.17
2022-10-19T16:09:31.115Z,58.84
2022-10-19T16:12:02.615Z,58.17
2022-10-19T16:14:35.731Z,58.77
2022-10-19T16:17:06.321Z,57.95
2022-10-19T16:19:33.771Z,57.72
2022-10-19T16:22:08.996Z,57.91
2022-10-19T16:24:44.687Z,58.94
2022-10-19T16:27:19.213Z,58.60
2022-10-19T16:29:46.971Z,59.08
2022-10-19T16:32:14.673Z,58.49
2022-10-19T16:34:42.834Z,58.56
2022-10-19T16:39:57.372Z,58.99
2022-10-19T16:42:28.173Z,59.51
2022-10-19T16:44:58.996Z,61.03
2022-10-19T16:47:26.643Z,62.78
2022-10-19T16:50:02.592Z,63.04
2022-10-19T16:52:38.311Z,62.20
2022-10-19T16:55:19.039Z,62.11
2022-10-19T17:00:52.646Z,64.83
2022-10-19T17:03:23.487Z,63.77
2022-10-19T17:05:50.601Z,63.17
2022-10-19T17:08:23.417Z,64.94
2022-10-19T17:11:02.594Z,65.61
2022-10-19T17:13:34.938Z,66.15
2022-10-19T17:16:19.200Z,65.26
2022-10-19T17:19:06.551Z,65.53
2022-10-19T17:24:43.803Z,68.37
2022-10-19T17:27:41.908Z,66.16
2022-10-19T17:30:18.807Z,64.78
2022-10-19T17:32:55.152Z,65.51
2022-10-19T17:35:31.089Z,63.78
2022-10-19T17:38:04.540Z,63.31
2022-10-19T17:40:39.307Z,61.75
2022-10-19T17:45:56.616Z,61.20
2022-10-19T17:51:16.877Z,60.53
2022-10-19T17:53:47.279Z,60.05
2022-10-19T17:56:32.208Z,59.96
2022-10-19T17:59:01.932Z,61.39
2022-10-19T18:01:29.939Z,63.04
2022-10-19T18:03:59.261Z,64.60
2022-10-19T18:06:30.103Z,67.09
2022-10-19T18:08:58.116Z,64.51
2022-10-19T18:11:26.666Z,62.48
2022-10-19T18:13:53.892Z,61.20
2022-10-19T18:16:21.929Z,61.42
2022-10-19T18:18:49.441Z,60.83
2022-10-19T18:21:18.792Z,60.56
2022-10-19T18:23:54.340Z,60.49
2022-10-19T18:26:24.390Z,61.93
2022-10-19T18:29:07.821Z,61.22
2022-10-19T18:31:47.425Z,60.06
2022-10-19T18:34:24.305Z,59.73
2022-10-19T18:36:54.359Z,59.25
2022-10-19T18:39:21.416Z,58.95
2022-10-19T18:41:56.389Z,58.50
2022-10-19T18:44:27.096Z,59.12
2022-10-19T18:56:23.788Z,59.08
2022-10-19T18:59:21.560Z,59.00
2022-10-19T19:02:04.742Z,58.19
2022-10-19T19:04:33.643Z,58.35
2022-10-19T19:07:08.994Z,59.40
2022-10-19T19:09:35.968Z,58.91
2022-10-19T19:15:00.138Z,58.01
2022-10-19T19:17:38.522Z,58.66
2022-10-19T19:20:13.928Z,58.61
2022-10-19T19:23:04.415Z,58.45
2022-10-19T19:25:34.195Z,58.36
2022-10-19T19:28:01.255Z,61.45
2022-10-19T19:30:32.466Z,60.44
2022-10-19T19:33:05.057Z,61.94
2022-10-19T19:35:32.083Z,60.93
2022-10-19T19:37:59.577Z,60.20
2022-10-19T19:40:26.533Z,60.13
2022-10-19T19:42:57.426Z,59.76
2022-10-19T19:45:28.196Z,59.44
2022-10-19T19:48:06.573Z,59.95
2022-10-19T19:50:44.216Z,59.33
2022-10-19T19:53:18.814Z,59.04
2022-10-19T19:58:32.233Z,60.42
2022-10-19T20:01:00.752Z,60.15
2022-10-19T20:03:31.815Z,61.42
2022-10-19T20:06:05.342Z,62.20
2022-10-19T20:08:38.794Z,64.29
2022-10-19T20:11:15.057Z,64.53
2022-10-19T20:13:41.847Z,66.74
2022-10-19T20:16:09.366Z,66.38
2022-10-19T20:18:36.618Z,66.89
2022-10-19T20:21:05.329Z,67.72
2022-10-19T20:23:32.657Z,68.47
2022-10-19T20:25:59.976Z,67.95
2022-10-19T20:28:27.404Z,68.43
2022-10-19T20:30:54.920Z,65.51
2022-10-19T20:33:22.592Z,64.77
2022-10-19T20:39:04.588Z,64.66
2022-10-19T20:41:35.155Z,66.25
2022-10-19T20:44:02.317Z,67.32
2022-10-19T20:49:10.081Z,67.39
2022-10-19T20:51:38.597Z,65.71
2022-10-19T20:54:05.562Z,63.59
2022-10-19T20:56:35.330Z,62.57
2022-10-19T20:59:11.722Z,63.71
2022-10-19T21:01:43.782Z,62.04
2022-10-19T21:04:11.114Z,62.29
2022-10-19T21:06:47.477Z,64.42
2022-10-19T21:09:17.919Z,63.89
2022-10-19T21:11:45.189Z,61.60
2022-10-19T21:14:12.748Z,60.67
2022-10-19T21:16:44.381Z,60.97
2022-10-19T21:19:13.194Z,60.59
2022-10-19T21:21:45.662Z,59.77
2022-10-19T21:24:17.844Z,59.35
2022-10-19T21:26:48.863Z,58.90
2022-10-19T21:29:16.566Z,58.85
2022-10-19T21:31:48.647Z,58.30
2022-10-19T21:34:16.242Z,58.12
2022-10-19T21:36:43.954Z,58.65
2022-10-19T21:39:11.068Z,58.69
2022-10-19T21:41:38.335Z,58.67
2022-10-19T21:44:06.873Z,58.11
2022-10-19T21:46:36.628Z,57.29
2022-10-19T21:49:08.890Z,57.37
2022-10-19T21:51:36.020Z,57.40
2022-10-19T21:54:02.981Z,57.91
2022-10-19T21:56:37.696Z,57.40
2022-10-19T21:59:05.185Z,57.05
2022-10-19T22:01:42.683Z,56.96
2022-10-19T22:04:10.006Z,56.64
2022-10-19T22:06:41.663Z,56.16
2022-10-19T22:09:08.613Z,55.79
2022-10-19T22:11:39.807Z,56.14
2022-10-19T22:14:08.810Z,56.08
2022-10-19T22:16:39.479Z,55.82
2022-10-19T22:19:07.552Z,56.25
2022-10-19T22:24:17.271Z,56.48
2022-10-19T22:26:47.797Z,56.19
2022-10-19T22:29:17.985Z,56.76
2022-10-19T22:31:45.240Z,57.46
2022-10-19T22:34:18.474Z,57.12
2022-10-19T22:36:46.438Z,57.19
2022-10-19T22:39:13.450Z,56.78
2022-10-19T22:41:40.371Z,56.21
2022-10-19T22:44:08.854Z,56.90
2022-10-19T22:46:35.855Z,57.21
2022-10-19T22:49:04.040Z,56.59
2022-10-19T22:51:32.573Z,56.31
2022-10-19T22:54:00.918Z,57.73
2022-10-19T22:56:27.982Z,57.17
2022-10-19T22:58:54.858Z,56.93
2022-10-19T23:01:24.834Z,56.93
2022-10-19T23:03:51.883Z,57.07
2022-10-19T23:06:21.489Z,57.74
2022-10-19T23:08:56.844Z,58.00
2022-10-19T23:11:25.398Z,57.67
2022-10-19T23:13:54.655Z,57.75
2022-10-19T23:16:22.650Z,57.82
2022-10-19T23:18:49.870Z,57.41
2022-10-19T23:21:17.773Z,57.16
2022-10-19T23:23:45.071Z,56.87
2022-10-19T23:26:15.184Z,56.86
2022-10-19T23:28:42.873Z,57.03
2022-10-19T23:31:20.739Z,56.79
2022-10-19T23:33:49.493Z,57.41
2022-10-19T23:36:27.967Z,56.70
2022-10-19T23:38:55.102Z,57.68
2022-10-19T23:41:23.978Z,58.61
2022-10-19T23:44:02.301Z,59.21
2022-10-19T23:49:15.478Z,58.61
2022-10-19T23:51:43.421Z,57.91
2022-10-19T23:54:10.354Z,57.37
2022-10-19T23:56:37.118Z,57.37
2022-10-19T23:59:04.405Z,57.88
